Brush Creek, California
Current Conditions -  °F | °C
As of 2:53 PM on Tuesday 25 Nov 2014 (Local Time) from KOVE Reporting Station
Clear Clear  
Wind Chill: 62°   Ceiling: Unl
Heat Index: 62°   Visibility: 10mi
Dew Point: 44°   Wind: 6mph
Humidity: 52%   Direction: 280°W
Pressure: 30.41"   Gusts: NA
Location:  39.7419°N, 121.306°W
Report Text: KOVE 252253Z AUTO 28005KT 10SM CLR 17/07 A3041 RMK AO2 SLP299 T01670067
Loading
Personal Weather Stations






























Interactive Weather Map New forecast layout! Learn more

10-Day Weather Forecast

Advertisements
Track Severe Weather on mobile